Time;durP1;ratioP1;P1;durP2;ratioP2;P2;SDS_P1;SDS_P2;PMS_P1;PMS_P2;Temp;Humidity;BMP_temperature;BMP_pressure;BME280_temperature;BME280_humidity;BME280_pressure;Samples;Min_cycle;Max_cycle;Signal;HPM_P1;HPM_P2
2022/07/03 00:02:22;;;;;;;;;;;;;;;18.02;63.19;101654.97;5064033;28;19920;-61
2022/07/03 00:04:47;;;;;;;;;;;;;;;17.99;63.64;101652.66;5064320;28;19920;-61
2022/07/03 00:07:13;;;;;;;;;;;;;;;17.90;64.11;101651.13;5064071;28;19920;-62
2022/07/03 00:09:38;;;;;;;;;;;;;;;17.81;64.59;101645.03;5063830;28;20105;-62
2022/07/03 00:12:04;;;;;;;;;;;;;;;17.72;65.32;101647.81;5064550;28;19958;-61
2022/07/03 00:14:29;;;;;;;;;;;;;;;17.56;66.59;101659.63;5064810;28;20703;-61
2022/07/03 00:16:54;;;;;;;;;;;;;;;17.44;67.70;101671.84;5064012;28;20220;-60
2022/07/03 00:19:19;;;;;;;;;;;;;;;17.28;68.48;101678.25;5064267;28;19920;-61
2022/07/03 00:21:51;;;;;;;;;;;;;;;17.09;69.09;101685.81;5063940;28;19978;-61
2022/07/03 00:24:29;;;;;;;;;;;;;;;16.94;68.36;101689.28;5063446;28;20015;-61
2022/07/03 00:26:55;;;;;;;;;;;;;;;16.87;67.83;101679.50;5046064;28;20300;-61
2022/07/03 00:29:21;;;;;;;;;;;;;;;16.86;67.86;101675.13;5063891;28;19924;-61
2022/07/03 00:31:47;;;;;;;;;;;;;;;16.86;67.84;101688.53;5063771;28;19920;-61
2022/07/03 00:34:13;;;;;;;;;;;;;;;16.86;68.09;101688.53;5063738;28;19988;-61
2022/07/03 00:36:39;;;;;;;;;;;;;;;16.84;67.77;101693.25;5064130;28;20051;-61
2022/07/03 00:39:05;;;;;;;;;;;;;;;16.85;67.38;101692.22;5064548;28;20003;-61
2022/07/03 00:41:31;;;;;;;;;;;;;;;16.86;67.45;101685.84;5063896;28;19916;-60
2022/07/03 00:43:57;;;;;;;;;;;;;;;16.88;67.71;101689.19;5063995;28;19932;-61
2022/07/03 00:46:24;;;;;;;;;;;;;;;16.88;67.11;101689.19;5045583;28;19920;-60
2022/07/03 00:48:50;;;;;;;;;;;;;;;16.89;67.16;101685.50;5063691;28;20011;-61
2022/07/03 00:51:18;;;;;;;;;;;;;;;16.89;67.03;101685.50;5063495;28;19932;-62
2022/07/03 00:53:45;;;;;;;;;;;;;;;16.90;67.35;101687.16;5064146;28;20367;-62
2022/07/03 00:56:13;;;;;;;;;;;;;;;16.92;67.23;101685.13;5064130;28;19920;-60
2022/07/03 00:58:38;;;;;;;;;;;;;;;16.92;67.38;101685.13;5063798;28;19921;-61
2022/07/03 01:01:03;;;;;;;;;;;;;;;16.92;67.29;101685.13;5063511;28;19931;-61
2022/07/03 01:03:32;;;;;;;;;;;;;;;16.89;66.99;101686.34;5063561;28;19960;-61
2022/07/03 01:06:00;;;;;;;;;;;;;;;16.89;67.21;101686.34;5063357;28;19947;-61
2022/07/03 01:08:25;;;;;;;;;;;;;;;16.89;67.22;101683.66;5063565;28;20369;-60
2022/07/03 01:10:59;;;;;;;;;;;;;;;16.87;67.27;101679.50;5062950;28;19920;-61
2022/07/03 01:13:37;;;;;;;;;;;;;;;16.79;67.32;101681.22;5063229;28;19924;-62
2022/07/03 01:16:14;;;;;;;;;;;;;;;16.72;67.51;101680.28;5063603;28;20279;-61
2022/07/03 01:18:46;;;;;;;;;;;;;;;16.70;67.87;101687.69;5063016;28;20295;-60
2022/07/03 01:21:17;;;;;;;;;;;;;;;16.68;67.97;101693.22;5063234;28;19917;-61
2022/07/03 01:23:54;;;;;;;;;;;;;;;16.64;67.90;101691.09;5062932;28;19950;-62
2022/07/03 01:26:20;;;;;;;;;;;;;;;16.61;68.04;101694.97;5062909;28;19920;-61
2022/07/03 01:28:46;;;;;;;;;;;;;;;16.59;67.85;101690.78;5042368;28;20811;-62
2022/07/03 01:31:17;;;;;;;;;;;;;;;16.57;67.89;101698.19;5043211;28;19948;-61
2022/07/03 01:33:44;;;;;;;;;;;;;;;16.53;67.81;101693.19;5043827;28;19928;-62
2022/07/03 01:36:12;;;;;;;;;;;;;;;16.52;67.61;101680.81;5043509;28;20387;-61
2022/07/03 01:38:42;;;;;;;;;;;;;;;16.52;67.86;101677.28;5043250;28;19920;-62
2022/07/03 01:41:09;;;;;;;;;;;;;;;16.51;67.80;101679.16;5043124;28;19944;-61
2022/07/03 01:43:36;;;;;;;;;;;;;;;16.51;67.83;101681.81;5042613;28;19954;-62
2022/07/03 01:46:02;;;;;;;;;;;;;;;16.50;67.67;101682.84;5042965;28;19921;-61
2022/07/03 01:48:27;;;;;;;;;;;;;;;16.50;68.05;101688.19;5043159;28;19921;-61
2022/07/03 01:50:54;;;;;;;;;;;;;;;16.44;67.97;101686.25;5043384;28;19931;-62
2022/07/03 01:53:20;;;;;;;;;;;;;;;16.37;68.22;101688.78;5042856;28;20345;-61
2022/07/03 01:55:45;;;;;;;;;;;;;;;16.33;69.09;101687.47;5043309;28;19924;-61
2022/07/03 01:58:11;;;;;;;;;;;;;;;16.31;68.47;101686.00;5043510;28;20291;-62
2022/07/03 02:00:55;;;;;;;;;;;;;;;16.31;68.14;101683.31;5041435;28;19925;-62
2022/07/03 02:03:28;;;;;;;;;;;;;;;16.29;68.26;101682.66;5034193;28;19927;-61
2022/07/03 02:06:07;;;;;;;;;;;;;;;16.25;68.22;101680.34;5042074;28;19924;-61
2022/07/03 02:08:35;;;;;;;;;;;;;;;16.25;69.11;101669.63;5042832;28;19967;-61
2022/07/03 02:11:17;;;;;;;;;;;;;;;16.22;69.06;101672.69;5045963;28;20447;-61
2022/07/03 02:13:48;;;;;;;;;;;;;;;16.20;69.02;101664.00;5046594;28;19917;-61
2022/07/03 02:16:16;;;;;;;;;;;;;;;16.20;68.33;101666.69;5046567;28;19925;-61
2022/07/03 02:18:42;;;;;;;;;;;;;;;16.20;68.20;101672.03;5046379;28;19932;-61
2022/07/03 02:21:13;;;;;;;;;;;;;;;16.19;68.65;101664.19;5045481;28;19921;-61
2022/07/03 02:24:03;;;;;;;;;;;;;;;16.19;69.00;101658.81;5046395;28;20372;-60
2022/07/03 02:26:37;;;;;;;;;;;;;;;16.12;69.30;101654.19;5046501;28;19967;-61
2022/07/03 02:29:03;;;;;;;;;;;;;;;16.07;68.67;101661.06;5063592;28;20019;-61
2022/07/03 02:31:32;;;;;;;;;;;;;;;16.02;68.90;101664.28;5068095;28;19935;-60
2022/07/03 02:33:58;;;;;;;;;;;;;;;15.99;69.14;101660.13;5066378;28;20062;-61
2022/07/03 02:36:26;;;;;;;;;;;;;;;15.97;69.14;101672.84;5034894;28;19940;-61
2022/07/03 02:38:53;;;;;;;;;;;;;;;15.95;68.68;101674.88;5065899;28;19927;-60
2022/07/03 02:41:24;;;;;;;;;;;;;;;15.94;68.62;101675.88;5066017;28;19920;-61
2022/07/03 02:44:00;;;;;;;;;;;;;;;15.92;70.84;101669.00;5066029;28;20015;-61
2022/07/03 02:49:19;;;;;;;;;;;;;;;15.80;69.95;101668.56;5060672;28;20008;-61
2022/07/03 02:51:47;;;;;;;;;;;;;;;15.80;69.49;101666.75;5065663;28;19920;-61
2022/07/03 02:54:14;;;;;;;;;;;;;;;15.80;69.26;101671.25;5065707;28;19924;-62
2022/07/03 02:56:39;;;;;;;;;;;;;;;15.79;69.38;101666.91;5065065;28;20290;-60
2022/07/03 02:59:23;;;;;;;;;;;;;;;15.81;69.54;101662.22;5065280;28;19924;-61
2022/07/03 03:01:55;;;;;;;;;;;;;;;15.80;69.12;101663.22;5063852;28;19974;-61
2022/07/03 03:04:31;;;;;;;;;;;;;;;15.79;69.37;101665.06;5064829;28;20366;-60
2022/07/03 03:07:06;;;;;;;;;;;;;;;15.77;69.72;101672.44;5063184;28;19924;-62
2022/07/03 03:09:40;;;;;;;;;;;;;;;15.76;69.37;101667.25;5064087;28;19920;-60
2022/07/03 03:12:06;;;;;;;;;;;;;;;15.76;69.20;101672.59;5065157;28;19921;-60
2022/07/03 03:14:41;;;;;;;;;;;;;;;15.76;69.53;101676.13;5065432;28;19970;-61
2022/07/03 03:17:07;;;;;;;;;;;;;;;15.73;69.38;101671.97;5065087;28;19920;-61
2022/07/03 03:19:36;;;;;;;;;;;;;;;15.70;69.64;101677.63;5065388;28;19920;-60
2022/07/03 03:22:21;;;;;;;;;;;;;;;15.67;69.21;101688.69;5064725;28;19920;-61
2022/07/03 03:24:47;;;;;;;;;;;;;;;15.66;69.49;101684.38;5065533;28;19920;-61
2022/07/03 03:27:12;;;;;;;;;;;;;;;15.66;69.41;101676.34;5064929;28;19942;-60
2022/07/03 03:29:39;;;;;;;;;;;;;;;15.65;69.39;101674.69;5067083;28;19920;-61
2022/07/03 03:32:04;;;;;;;;;;;;;;;15.65;70.11;101681.84;5065305;28;19920;-60
2022/07/03 03:34:32;;;;;;;;;;;;;;;15.61;69.61;101686.72;5065465;28;20294;-61
2022/07/03 03:36:57;;;;;;;;;;;;;;;15.59;70.14;101683.38;5065548;28;19926;-62
2022/07/03 03:39:22;;;;;;;;;;;;;;;15.54;69.90;101693.78;5065399;28;20303;-60
2022/07/03 03:41:47;;;;;;;;;;;;;;;15.54;69.89;101688.44;5065003;28;19924;-60
2022/07/03 03:44:12;;;;;;;;;;;;;;;15.51;69.80;101686.94;5064742;28;19921;-61
2022/07/03 03:46:37;;;;;;;;;;;;;;;15.52;69.93;101691.28;5065228;28;20377;-61
2022/07/03 03:49:03;;;;;;;;;;;;;;;15.52;70.59;101685.09;5065147;28;19920;-60
2022/07/03 03:51:28;;;;;;;;;;;;;;;15.53;69.98;101678.72;5065033;28;19947;-61
2022/07/03 03:53:53;;;;;;;;;;;;;;;15.56;70.29;101683.72;5065046;28;19927;-61
2022/07/03 03:56:18;;;;;;;;;;;;;;;15.55;70.08;101684.75;5065355;28;19926;-61
2022/07/03 03:58:44;;;;;;;;;;;;;;;15.55;70.14;101674.06;5064794;28;19990;-61
2022/07/03 04:01:11;;;;;;;;;;;;;;;15.52;70.37;101675.22;5061713;28;19925;-60
2022/07/03 04:03:37;;;;;;;;;;;;;;;15.52;70.38;101685.09;5060766;28;20019;-60
2022/07/03 04:06:02;;;;;;;;;;;;;;;15.52;70.68;101685.09;5064846;28;20018;-60
2022/07/03 04:08:28;;;;;;;;;;;;;;;15.53;70.34;101687.59;5064728;28;19927;-60
2022/07/03 04:10:53;;;;;;;;;;;;;;;15.54;70.59;101689.25;5065762;28;20341;-62
2022/07/03 04:13:19;;;;;;;;;;;;;;;15.55;70.64;101684.75;5064942;28;20271;-61
2022/07/03 04:15:45;;;;;;;;;;;;;;;15.56;70.46;101681.06;5065453;28;20763;-62
2022/07/03 04:18:11;;;;;;;;;;;;;;;15.58;70.68;101687.06;5065274;28;20016;-61
2022/07/03 04:20:36;;;;;;;;;;;;;;;15.58;70.46;101684.38;5064771;28;19998;-61
2022/07/03 04:23:01;;;;;;;;;;;;;;;15.58;70.03;101679.88;5064696;28;20286;-60
2022/07/03 04:25:27;;;;;;;;;;;;;;;15.56;70.62;101686.41;5064999;28;19916;-62
2022/07/03 04:27:52;;;;;;;;;;;;;;;15.54;70.16;101688.44;5064301;28;19924;-61
2022/07/03 04:30:18;;;;;;;;;;;;;;;15.53;70.60;101692.09;5064718;28;20400;-61
2022/07/03 04:32:43;;;;;;;;;;;;;;;15.46;70.57;101692.78;5064331;28;20023;-61
2022/07/03 04:35:09;;;;;;;;;;;;;;;15.44;70.24;101689.47;5064848;28;19931;-62
2022/07/03 04:37:34;;;;;;;;;;;;;;;15.44;70.51;101694.81;5064824;28;20325;-61
2022/07/03 04:40:00;;;;;;;;;;;;;;;15.48;70.21;101697.16;5064543;28;19942;-60
2022/07/03 04:42:25;;;;;;;;;;;;;;;15.54;70.11;101704.47;5065061;28;20367;-60
2022/07/03 04:44:50;;;;;;;;;;;;;;;15.59;70.45;101702.94;5064848;28;19966;-60
2022/07/03 04:47:15;;;;;;;;;;;;;;;15.60;70.47;101709.13;5064442;28;19925;-60
2022/07/03 04:49:41;;;;;;;;;;;;;;;15.60;70.30;101709.94;5063947;28;19924;-61
2022/07/03 04:52:06;;;;;;;;;;;;;;;15.61;70.93;101713.47;5064344;28;20512;-60
2022/07/03 04:54:31;;;;;;;;;;;;;;;15.59;70.16;101716.28;5064160;28;20013;-61
2022/07/03 04:56:56;;;;;;;;;;;;;;;15.58;70.22;101711.13;5064003;28;19925;-62
2022/07/03 04:59:21;;;;;;;;;;;;;;;15.60;70.17;101714.47;5064363;28;20383;-62
2022/07/03 05:01:49;;;;;;;;;;;;;;;15.57;70.49;101709.47;5063993;28;20003;-60
2022/07/03 05:04:14;;;;;;;;;;;;;;;15.58;70.41;101711.13;5064610;28;19920;-61
2022/07/03 05:06:40;;;;;;;;;;;;;;;15.62;70.46;101717.78;5063983;28;19970;-62
2022/07/03 05:09:05;;;;;;;;;;;;;;;15.63;70.02;101711.44;5064849;28;20421;-61
2022/07/03 05:11:30;;;;;;;;;;;;;;;15.66;69.98;101704.91;5064162;28;19920;-60
2022/07/03 05:13:55;;;;;;;;;;;;;;;15.68;70.07;101711.75;5064088;28;20518;-61
2022/07/03 05:16:20;;;;;;;;;;;;;;;15.68;69.97;101706.41;5064151;28;19920;-60
2022/07/03 05:18:46;;;;;;;;;;;;;;;15.69;70.30;101718.75;5064320;28;19921;-61
2022/07/03 05:21:11;;;;;;;;;;;;;;;15.65;70.04;101721.97;5063482;28;20325;-62
2022/07/03 05:23:36;;;;;;;;;;;;;;;15.66;70.31;101724.47;5046281;28;19927;-60
2022/07/03 05:26:01;;;;;;;;;;;;;;;15.61;70.07;101726.81;5064221;28;19964;-61
2022/07/03 05:28:27;;;;;;;;;;;;;;;15.61;70.49;101726.81;5063750;28;19924;-61
2022/07/03 05:30:52;;;;;;;;;;;;;;;15.64;70.26;101721.13;5063936;28;19969;-61
2022/07/03 05:33:17;;;;;;;;;;;;;;;15.67;70.59;101726.13;5063572;28;20504;-62
2022/07/03 05:35:42;;;;;;;;;;;;;;;15.68;70.33;101721.59;5063453;28;20478;-60
2022/07/03 05:38:07;;;;;;;;;;;;;;;15.73;70.80;101732.59;5064030;28;20014;-60
2022/07/03 05:40:33;;;;;;;;;;;;;;;15.74;70.24;101732.44;5063751;28;20559;-61
2022/07/03 05:42:58;;;;;;;;;;;;;;;15.81;70.68;101731.75;5063877;28;19951;-62
2022/07/03 05:45:23;;;;;;;;;;;;;;;15.82;70.49;101734.25;5065574;28;19920;-60
2022/07/03 05:47:48;;;;;;;;;;;;;;;15.90;70.50;101736.06;5067485;28;19924;-61
2022/07/03 05:50:13;;;;;;;;;;;;;;;15.98;70.82;101729.84;5067714;28;19924;-61
2022/07/03 05:52:39;;;;;;;;;;;;;;;16.09;70.53;101729.44;5068151;28;19959;-61
2022/07/03 05:55:04;;;;;;;;;;;;;;;16.12;70.49;101728.25;5068231;28;19920;-61
2022/07/03 05:57:29;;;;;;;;;;;;;;;16.18;70.47;101732.09;5067247;28;19921;-62
2022/07/03 05:59:54;;;;;;;;;;;;;;;16.20;70.41;101733.59;5067453;28;19967;-61
2022/07/03 06:02:20;;;;;;;;;;;;;;;16.34;70.37;101748.00;5067348;28;20393;-62
2022/07/03 06:04:45;;;;;;;;;;;;;;;16.40;70.78;101738.47;5067202;28;19925;-61
2022/07/03 06:07:10;;;;;;;;;;;;;;;16.46;70.19;101731.53;5066927;28;20419;-60
2022/07/03 06:09:35;;;;;;;;;;;;;;;16.53;70.58;101741.38;5040127;28;19936;-61
2022/07/03 06:12:00;;;;;;;;;;;;;;;16.64;70.51;101744.63;5062533;28;19931;-61
2022/07/03 06:14:25;;;;;;;;;;;;;;;16.70;70.58;101743.91;5067177;28;19925;-60
2022/07/03 06:16:51;;;;;;;;;;;;;;;16.73;70.70;101745.41;5066946;28;20414;-61
2022/07/03 06:19:16;;;;;;;;;;;;;;;16.78;71.05;101745.69;5067673;28;19920;-61
2022/07/03 06:21:41;;;;;;;;;;;;;;;16.81;70.40;101743.50;5067769;28;19921;-62
2022/07/03 06:24:06;;;;;;;;;;;;;;;16.76;70.45;101745.88;5067247;28;20385;-61
2022/07/03 06:26:32;;;;;;;;;;;;;;;16.79;70.85;101740.16;5067212;28;20403;-60
2022/07/03 06:28:57;;;;;;;;;;;;;;;17.00;71.41;101741.31;5066796;28;19951;-61
2022/07/03 06:31:22;;;;;;;;;;;;;;;16.97;70.83;101746.19;5066876;28;19970;-60
2022/07/03 06:33:47;;;;;;;;;;;;;;;17.04;70.55;101734.63;5066646;28;20378;-61
2022/07/03 06:36:12;;;;;;;;;;;;;;;17.19;70.29;101745.34;5066476;28;19924;-62
2022/07/03 06:38:38;;;;;;;;;;;;;;;17.24;70.58;101742.09;5066880;28;19920;-61
2022/07/03 06:41:03;;;;;;;;;;;;;;;17.33;71.58;101742.84;5066519;28;19917;-61
2022/07/03 06:43:28;;;;;;;;;;;;;;;17.43;71.43;101745.25;5066858;28;19978;-62
2022/07/03 06:45:53;;;;;;;;;;;;;;;17.51;70.54;101747.84;5066517;28;20023;-61
2022/07/03 06:48:18;;;;;;;;;;;;;;;17.57;70.30;101747.09;5066169;28;20345;-61
2022/07/03 06:50:45;;;;;;;;;;;;;;;17.65;69.95;101742.66;5066967;28;20011;-61
2022/07/03 06:53:10;;;;;;;;;;;;;;;17.81;69.99;101741.63;5066276;28;19999;-61
2022/07/03 06:55:35;;;;;;;;;;;;;;;17.71;69.68;101747.28;5066568;28;20023;-60
2022/07/03 06:58:00;;;;;;;;;;;;;;;17.65;69.88;101748.03;5066573;28;20359;-60
2022/07/03 07:00:26;;;;;;;;;;;;;;;17.77;69.65;101743.84;5066038;28;19920;-60
2022/07/03 07:02:51;;;;;;;;;;;;;;;17.74;69.81;101746.88;5066471;28;19955;-61
2022/07/03 07:05:16;;;;;;;;;;;;;;;17.68;69.88;101744.97;5065938;28;19970;-62
2022/07/03 07:07:41;;;;;;;;;;;;;;;17.60;70.52;101746.72;5067176;28;19920;-61
2022/07/03 07:10:06;;;;;;;;;;;;;;;17.66;69.82;101745.13;5066180;28;19920;-60
2022/07/03 07:12:32;;;;;;;;;;;;;;;17.73;70.08;101750.59;5066366;28;19956;-62
2022/07/03 07:14:57;;;;;;;;;;;;;;;17.80;70.06;101746.13;5047991;28;19998;-60
2022/07/03 07:17:22;;;;;;;;;;;;;;;17.92;70.71;101753.72;5066333;28;20740;-60
2022/07/03 07:19:47;;;;;;;;;;;;;;;18.01;69.83;101752.59;5065485;28;20333;-61
2022/07/03 07:22:13;;;;;;;;;;;;;;;18.11;69.74;101744.25;5066503;28;19921;-61
2022/07/03 07:24:38;;;;;;;;;;;;;;;18.23;68.99;101747.25;5065848;28;19920;-61
2022/07/03 07:27:03;;;;;;;;;;;;;;;18.15;69.52;101749.06;5047689;28;19956;-61
2022/07/03 07:29:28;;;;;;;;;;;;;;;18.25;68.53;101759.47;5066113;28;19920;-61
2022/07/03 07:31:54;;;;;;;;;;;;;;;18.24;68.33;101755.13;5065805;28;20355;-62
2022/07/03 07:34:19;;;;;;;;;;;;;;;18.30;68.42;101760.78;5065684;28;19955;-62
2022/07/03 07:36:44;;;;;;;;;;;;;;;18.25;67.87;101759.47;5047472;28;19974;-61
2022/07/03 07:39:09;;;;;;;;;;;;;;;18.27;68.21;101764.66;5065754;28;19917;-61
2022/07/03 07:41:35;;;;;;;;;;;;;;;18.27;68.14;101761.97;5065446;28;19924;-61
2022/07/03 07:44:00;;;;;;;;;;;;;;;18.26;68.08;101766.50;5065341;28;20402;-62
2022/07/03 07:46:25;;;;;;;;;;;;;;;18.38;68.30;101766.84;5065151;28;20409;-61
2022/07/03 07:48:50;;;;;;;;;;;;;;;18.53;68.18;101765.94;5047393;28;19924;-62
2022/07/03 07:51:16;;;;;;;;;;;;;;;18.69;68.11;101760.31;5065364;28;19974;-61
2022/07/03 07:53:41;;;;;;;;;;;;;;;18.77;67.94;101750.44;5065254;28;19920;-61
2022/07/03 07:56:06;;;;;;;;;;;;;;;18.91;67.48;101757.59;5065188;28;20362;-62
2022/07/03 07:58:31;;;;;;;;;;;;;;;19.01;67.37;101761.81;5064741;28;19923;-61
2022/07/03 08:06:24;;;;;;;;;;;;;;;19.16;66.40;101762.56;5065327;28;19970;-62
2022/07/03 08:08:49;;;;;;;;;;;;;;;19.24;66.32;101771.50;5064627;28;19924;-61
2022/07/03 08:11:15;;;;;;;;;;;;;;;19.29;65.91;101766.38;5065238;28;19924;-60
2022/07/03 08:13:40;;;;;;;;;;;;;;;19.35;65.48;101769.09;5064799;28;19920;-61
2022/07/03 08:16:05;;;;;;;;;;;;;;;19.34;66.68;101772.00;5065256;28;19931;-62
2022/07/03 08:18:31;;;;;;;;;;;;;;;19.42;65.68;101763.75;5064535;28;20354;-62
2022/07/03 08:20:56;;;;;;;;;;;;;;;19.43;66.09;101765.41;5064976;28;20026;-61
2022/07/03 08:23:21;;;;;;;;;;;;;;;19.65;65.75;101762.63;5064871;28;19928;-60
2022/07/03 08:25:47;;;;;;;;;;;;;;;19.69;66.19;101769.25;5064721;28;20283;-61
2022/07/03 08:28:12;;;;;;;;;;;;;;;19.79;66.30;101768.06;5064710;28;19974;-61
2022/07/03 08:30:37;;;;;;;;;;;;;;;19.96;65.83;101776.66;5047274;28;19956;-61
2022/07/03 08:33:02;;;;;;;;;;;;;;;19.93;65.94;101775.16;5065258;28;20366;-61
2022/07/03 08:35:28;;;;;;;;;;;;;;;19.83;65.69;101775.53;5064775;28;19921;-61
2022/07/03 08:37:53;;;;;;;;;;;;;;;19.68;66.06;101773.00;5065013;28;19927;-61
2022/07/03 08:40:19;;;;;;;;;;;;;;;19.75;66.13;101770.34;5065466;28;20281;-61
2022/07/03 08:42:48;;;;;;;;;;;;;;;19.75;66.12;101763.06;5065184;28;20778;-62
2022/07/03 08:45:15;;;;;;;;;;;;;;;19.98;65.68;101772.72;5064638;28;20103;-61
2022/07/03 08:47:41;;;;;;;;;;;;;;;19.98;65.27;101767.34;5064526;28;19942;-61
2022/07/03 08:50:07;;;;;;;;;;;;;;;20.07;64.82;101772.56;5046574;28;20455;-60
2022/07/03 08:52:33;;;;;;;;;;;;;;;20.22;63.83;101767.81;5064058;28;20003;-60
2022/07/03 08:54:58;;;;;;;;;;;;;;;20.09;61.84;101763.22;5064408;28;19921;-61
2022/07/03 08:57:25;;;;;;;;;;;;;;;20.12;64.54;101756.59;5046171;28;19928;-62
2022/07/03 08:59:52;;;;;;;;;;;;;;;20.33;63.86;101762.88;5061714;28;19962;-61
2022/07/03 09:02:17;;;;;;;;;;;;;;;20.50;63.71;101764.16;5064336;28;19920;-61
2022/07/03 09:04:42;;;;;;;;;;;;;;;20.66;63.05;101762.06;5064291;28;19931;-62
2022/07/03 09:07:08;;;;;;;;;;;;;;;20.65;62.91;101760.41;5064173;28;19921;-61
2022/07/03 09:09:33;;;;;;;;;;;;;;;20.68;63.46;101760.84;5064043;28;19921;-61
2022/07/03 09:11:58;;;;;;;;;;;;;;;20.88;62.47;101753.81;5064443;28;19916;-61
2022/07/03 09:14:23;;;;;;;;;;;;;;;20.80;62.42;101766.44;5063910;28;20398;-61
2022/07/03 09:16:49;;;;;;;;;;;;;;;20.75;62.91;101758.16;5064023;28;19921;-62
2022/07/03 09:19:14;;;;;;;;;;;;;;;20.70;63.61;101763.34;5064137;28;19985;-60
2022/07/03 09:21:40;;;;;;;;;;;;;;;20.59;63.58;101766.63;5068261;28;19920;-60
2022/07/03 09:24:06;;;;;;;;;;;;;;;20.49;63.91;101767.03;5068132;28;19971;-62
2022/07/03 09:26:32;;;;;;;;;;;;;;;20.68;62.29;101770.81;5068246;28;20031;-61
2022/07/03 09:28:58;;;;;;;;;;;;;;;20.75;62.41;101771.63;5049783;28;20477;-60
2022/07/03 09:31:25;;;;;;;;;;;;;;;20.91;61.81;101769.56;5067998;28;19920;-61
2022/07/03 09:33:57;;;;;;;;;;;;;;;21.20;61.60;101772.84;5068228;28;19920;-62
2022/07/03 09:36:43;;;;;;;;;;;;;;;21.27;61.65;101784.50;5067794;28;20069;-61
2022/07/03 09:39:13;;;;;;;;;;;;;;;21.40;61.02;101788.19;5057045;28;20454;-62
2022/07/03 09:41:52;;;;;;;;;;;;;;;21.37;61.59;101789.44;5067781;28;20043;-61
2022/07/03 09:44:47;;;;;;;;;;;;;;;21.30;61.26;101789.44;5067711;28;19920;-62
2022/07/03 09:47:18;;;;;;;;;;;;;;;21.18;61.70;101791.13;5064785;28;19920;-61
2022/07/03 09:49:45;;;;;;;;;;;;;;;20.96;60.51;101794.03;5067409;28;20325;-62
2022/07/03 09:52:25;;;;;;;;;;;;;;;20.73;61.22;101783.66;5067598;28;19930;-61
2022/07/03 09:54:51;;;;;;;;;;;;;;;20.81;61.66;101781.56;5055549;28;19920;-61
2022/07/03 09:57:16;;;;;;;;;;;;;;;20.99;61.99;101787.41;5067365;28;19931;-61
2022/07/03 09:59:41;;;;;;;;;;;;;;;21.07;61.76;101784.50;5067025;28;19920;-61
2022/07/03 10:02:08;;;;;;;;;;;;;;;21.14;62.01;101787.19;5067293;28;19921;-62
2022/07/03 10:04:33;;;;;;;;;;;;;;;21.18;60.79;101785.72;5067086;28;19966;-61
2022/07/03 10:06:59;;;;;;;;;;;;;;;21.30;59.26;101788.59;5067420;28;20382;-61
2022/07/03 10:09:28;;;;;;;;;;;;;;;21.14;59.95;101785.31;5067043;28;20038;-62
2022/07/03 10:11:54;;;;;;;;;;;;;;;21.16;59.39;101782.44;5066935;28;19920;-61
2022/07/03 10:14:21;;;;;;;;;;;;;;;21.12;58.63;101781.19;5066805;28;19921;-62
2022/07/03 10:16:47;;;;;;;;;;;;;;;21.12;60.08;101782.03;5066813;28;19924;-61
2022/07/03 10:19:22;;;;;;;;;;;;;;;21.08;60.21;101786.97;5066669;28;19967;-62
2022/07/03 10:21:52;;;;;;;;;;;;;;;20.98;60.37;101783.06;5067056;28;20668;-61
2022/07/03 10:24:18;;;;;;;;;;;;;;;20.93;61.56;101786.38;5066897;28;19967;-61
2022/07/03 10:26:44;;;;;;;;;;;;;;;21.09;61.24;101787.81;5066842;28;19956;-62
2022/07/03 10:29:10;;;;;;;;;;;;;;;21.17;61.10;101789.47;5066794;28;19924;-61
2022/07/03 10:31:36;;;;;;;;;;;;;;;21.28;61.30;101791.53;5066073;28;19931;-61
2022/07/03 10:34:02;;;;;;;;;;;;;;;21.58;60.35;101791.03;5067187;28;19924;-62
2022/07/03 10:36:28;;;;;;;;;;;;;;;21.66;57.89;101797.25;5066620;28;19920;-62
2022/07/03 10:38:54;;;;;;;;;;;;;;;21.57;58.80;101800.16;5066157;28;19963;-62
2022/07/03 10:47:27;;;;;;;;;;;;;;;21.82;56.74;101796.81;5067050;28;19989;-62
2022/07/03 10:50:02;;;;;;;;;;;;;;;21.74;55.40;101805.97;5066215;28;19959;-61
2022/07/03 10:52:28;;;;;;;;;;;;;;;21.37;57.21;101798.34;5066213;28;19920;-60
2022/07/03 10:54:55;;;;;;;;;;;;;;;21.34;57.03;101806.03;5066232;28;19920;-61
2022/07/03 10:57:21;;;;;;;;;;;;;;;21.27;57.87;101794.44;5065901;28;19921;-62
2022/07/03 10:59:46;;;;;;;;;;;;;;;21.23;58.26;101794.84;5063764;28;19931;-62
2022/07/03 11:02:22;;;;;;;;;;;;;;;21.19;57.93;101790.09;5065592;28;19921;-61
2022/07/03 11:05:13;;;;;;;;;;;;;;;21.17;57.50;101806.47;5066470;28;19920;-61
2022/07/03 11:07:48;;;;;;;;;;;;;;;21.06;57.42;101807.94;5062743;28;19920;-62
2022/07/03 11:10:16;;;;;;;;;;;;;;;21.14;57.23;101800.66;5065590;28;19928;-61
2022/07/03 11:13:03;;;;;;;;;;;;;;;21.53;55.84;101798.94;5065713;28;19921;-62
2022/07/03 11:15:39;;;;;;;;;;;;;;;21.76;55.95;101797.66;5065764;28;19969;-61
2022/07/03 11:18:23;;;;;;;;;;;;;;;22.12;54.23;101785.47;5065818;28;20405;-61
2022/07/03 11:20:50;;;;;;;;;;;;;;;22.12;54.58;101780.06;5065201;28;19928;-62
2022/07/03 11:23:18;;;;;;;;;;;;;;;22.04;55.52;101782.97;5065661;28;19925;-61
2022/07/03 11:25:44;;;;;;;;;;;;;;;21.95;56.11;101778.91;5065690;28;19921;-62
2022/07/03 11:28:29;;;;;;;;;;;;;;;21.95;56.00;101785.09;5046492;28;19924;-61
2022/07/03 11:31:16;;;;;;;;;;;;;;;22.02;55.06;101782.38;5064884;28;19925;-62
2022/07/03 11:33:45;;;;;;;;;;;;;;;22.07;55.10;101785.28;5065131;28;20014;-61
2022/07/03 11:36:11;;;;;;;;;;;;;;;22.06;55.42;101780.06;5065350;28;19931;-62
2022/07/03 11:38:37;;;;;;;;;;;;;;;22.23;55.76;101769.59;5065514;28;19920;-60
2022/07/03 11:41:05;;;;;;;;;;;;;;;22.16;54.96;101770.44;5065090;28;20001;-62
2022/07/03 11:43:31;;;;;;;;;;;;;;;22.00;56.13;101770.97;5064356;28;19920;-61
2022/07/03 11:45:56;;;;;;;;;;;;;;;21.79;56.58;101772.94;5065550;28;19939;-61
2022/07/03 11:48:23;;;;;;;;;;;;;;;21.71;56.97;101778.56;5064887;28;19931;-62
2022/07/03 11:50:48;;;;;;;;;;;;;;;21.57;56.30;101781.28;5064572;28;19920;-62
2022/07/03 11:53:16;;;;;;;;;;;;;;;21.42;57.08;101775.31;5065703;28;20012;-62
2022/07/03 11:55:52;;;;;;;;;;;;;;;21.39;56.83;101775.72;5064764;28;20737;-62
2022/07/03 11:58:17;;;;;;;;;;;;;;;21.69;56.35;101769.81;5046764;28;20336;-62
2022/07/03 12:00:42;;;;;;;;;;;;;;;21.90;54.82;101769.56;5064544;28;19924;-61
2022/07/03 12:03:07;;;;;;;;;;;;;;;22.04;55.53;101767.63;5064546;28;19921;-62
2022/07/03 12:05:33;;;;;;;;;;;;;;;22.29;54.87;101771.41;5064551;28;20326;-61
2022/07/03 12:08:02;;;;;;;;;;;;;;;22.28;54.00;101767.06;5064878;28;19962;-62
2022/07/03 12:10:40;;;;;;;;;;;;;;;22.12;54.41;101774.66;5064015;28;19982;-62
2022/07/03 12:13:18;;;;;;;;;;;;;;;22.10;54.08;101774.03;5046261;28;19920;-61
2022/07/03 12:15:43;;;;;;;;;;;;;;;21.83;53.78;101776.03;5064831;28;19963;-63
2022/07/03 12:18:08;;;;;;;;;;;;;;;21.99;54.38;101769.28;5064504;28;19962;-62
2022/07/03 12:20:34;;;;;;;;;;;;;;;22.23;54.47;101775.00;5064211;28;19924;-62
2022/07/03 12:22:59;;;;;;;;;;;;;;;22.49;52.84;101762.38;5064609;28;20416;-61
2022/07/03 12:25:28;;;;;;;;;;;;;;;22.82;52.71;101777.50;5064822;28;19916;-61
2022/07/03 12:27:54;;;;;;;;;;;;;;;22.87;51.14;101783.09;5064633;28;19924;-60
2022/07/03 12:30:21;;;;;;;;;;;;;;;22.65;51.73;101771.84;5064745;28;20436;-61
2022/07/03 12:32:46;;;;;;;;;;;;;;;22.66;50.66;101773.47;5063945;28;20039;-62
2022/07/03 12:35:11;;;;;;;;;;;;;;;22.51;50.48;101773.78;5063834;28;19999;-62
2022/07/03 12:37:40;;;;;;;;;;;;;;;22.41;50.74;101772.38;5064725;28;19921;-62
2022/07/03 12:40:07;;;;;;;;;;;;;;;22.60;50.19;101764.38;5051367;28;20058;-61
2022/07/03 12:42:41;;;;;;;;;;;;;;;22.52;50.34;101772.75;5063748;28;20022;-62
2022/07/03 12:45:10;;;;;;;;;;;;;;;22.53;50.89;101769.00;5064914;28;19920;-62
2022/07/03 12:47:36;;;;;;;;;;;;;;;22.96;49.26;101776.34;5063900;28;19930;-62
2022/07/03 12:50:03;;;;;;;;;;;;;;;22.94;48.62;101770.31;5063857;28;20007;-61
2022/07/03 12:52:29;;;;;;;;;;;;;;;23.00;47.47;101765.06;5063387;28;19920;-62